createdAt,value
2018-07-27T00:00:38.730Z,11.33
2018-07-27T00:03:07.108Z,14.17
2018-07-27T00:05:35.431Z,10.50
2018-07-27T00:08:03.760Z,9.40
2018-07-27T00:10:32.084Z,17.50
2018-07-27T00:13:00.380Z,13.73
2018-07-27T00:15:28.699Z,11.13
2018-07-27T00:17:57.012Z,11.57
2018-07-27T00:20:25.319Z,9.87
2018-07-27T00:22:53.644Z,12.10
2018-07-27T00:25:21.939Z,21.00
2018-07-27T00:27:50.235Z,17.53
2018-07-27T00:30:18.532Z,8.40
2018-07-27T00:32:46.848Z,20.27
2018-07-27T00:35:15.159Z,13.87
2018-07-27T00:37:43.854Z,10.97
2018-07-27T00:40:12.152Z,8.10
2018-07-27T00:42:41.082Z,16.40
2018-07-27T00:45:09.411Z,15.10
2018-07-27T00:47:37.763Z,10.90
2018-07-27T00:50:06.156Z,13.50
2018-07-27T00:52:34.467Z,14.33
2018-07-27T00:55:03.800Z,18.27
2018-07-27T00:57:32.436Z,13.23
2018-07-27T01:00:00.721Z,18.87
2018-07-27T01:02:29.063Z,16.90
2018-07-27T01:04:57.386Z,20.23
2018-07-27T01:07:25.695Z,5.37
2018-07-27T01:09:54.047Z,10.33
2018-07-27T01:12:22.380Z,16.30
2018-07-27T01:14:50.683Z,8.80
2018-07-27T01:17:19.006Z,19.93
2018-07-27T01:19:47.308Z,9.70
2018-07-27T01:22:15.646Z,11.47
2018-07-27T01:24:43.946Z,9.47
2018-07-27T01:27:12.234Z,4.30
2018-07-27T01:29:40.547Z,14.93
2018-07-27T01:32:08.923Z,10.33
2018-07-27T01:34:37.221Z,6.73
2018-07-27T01:37:05.538Z,11.00
2018-07-27T01:39:33.840Z,14.60
2018-07-27T01:42:02.174Z,26.50
2018-07-27T01:44:30.499Z,8.10
2018-07-27T01:46:58.856Z,5.83
2018-07-27T01:49:27.183Z,7.70
2018-07-27T01:51:55.483Z,9.30
2018-07-27T01:54:23.807Z,20.13
2018-07-27T01:56:52.132Z,13.83
2018-07-27T01:59:20.474Z,15.33
2018-07-27T02:01:48.798Z,11.50
2018-07-27T02:04:17.107Z,10.90
2018-07-27T02:06:45.548Z,10.60
2018-07-27T02:09:13.903Z,13.57
2018-07-27T02:11:42.216Z,9.07
2018-07-27T02:14:11.829Z,7.83
2018-07-27T02:16:40.157Z,22.47
2018-07-27T02:19:08.508Z,16.03
2018-07-27T02:21:36.800Z,14.00
2018-07-27T02:24:05.915Z,12.83
2018-07-27T02:26:34.262Z,6.03
2018-07-27T02:29:02.603Z,5.10
2018-07-27T02:31:30.943Z,14.70
2018-07-27T02:33:59.268Z,8.30
2018-07-27T02:36:27.584Z,5.00
2018-07-27T02:38:55.877Z,6.77
2018-07-27T02:41:24.205Z,8.87
2018-07-27T02:43:52.508Z,7.80
2018-07-27T02:46:21.865Z,12.23
2018-07-27T02:48:50.164Z,6.53
2018-07-27T02:51:18.525Z,14.27
2018-07-27T02:53:46.807Z,8.83
2018-07-27T02:56:15.120Z,5.43
2018-07-27T02:58:43.424Z,14.87
2018-07-27T03:01:11.748Z,7.40
2018-07-27T03:03:40.076Z,7.03
2018-07-27T03:06:08.380Z,7.93
2018-07-27T03:08:36.711Z,9.27
2018-07-27T03:11:05.050Z,6.40
2018-07-27T03:13:33.353Z,8.67
2018-07-27T03:16:01.675Z,12.20
2018-07-27T03:18:29.983Z,5.70
2018-07-27T03:20:58.324Z,18.70
2018-07-27T03:23:26.636Z,8.63
2018-07-27T03:25:54.965Z,9.17
2018-07-27T03:28:23.321Z,21.13
2018-07-27T03:30:51.656Z,3.83
2018-07-27T03:33:19.978Z,10.33
2018-07-27T03:35:48.273Z,10.63
2018-07-27T03:38:16.725Z,9.93
2018-07-27T03:40:45.036Z,12.20
2018-07-27T03:43:13.363Z,4.90
2018-07-27T03:45:41.696Z,14.20
2018-07-27T03:48:10.460Z,6.67
2018-07-27T03:50:40.415Z,4.63
2018-07-27T03:53:09.111Z,5.00
2018-07-27T03:55:37.415Z,4.80
2018-07-27T03:58:05.807Z,7.90
2018-07-27T04:00:34.140Z,8.93
2018-07-27T04:03:02.479Z,6.80
2018-07-27T04:05:30.774Z,6.00
2018-07-27T04:07:59.084Z,16.30
2018-07-27T04:10:27.880Z,15.17
2018-07-27T04:12:56.247Z,6.13
2018-07-27T04:15:24.632Z,14.43
2018-07-27T04:18:07.499Z,7.30
2018-07-27T04:20:35.805Z,8.03
2018-07-27T04:23:04.161Z,8.30
2018-07-27T04:25:32.503Z,18.87
2018-07-27T04:28:00.836Z,12.80
2018-07-27T04:30:29.158Z,5.00
2018-07-27T04:32:57.520Z,9.80
2018-07-27T04:35:25.848Z,16.53
2018-07-27T04:37:54.173Z,7.40
2018-07-27T04:40:22.536Z,4.50
2018-07-27T04:42:50.850Z,5.10
2018-07-27T04:45:19.152Z,8.43
2018-07-27T04:47:47.495Z,6.80
2018-07-27T04:50:15.824Z,5.37
2018-07-27T04:52:44.136Z,6.67
2018-07-27T04:55:12.432Z,19.13
2018-07-27T04:57:40.749Z,5.87
2018-07-27T05:00:10.020Z,9.23
2018-07-27T05:02:38.324Z,9.53
2018-07-27T05:05:06.654Z,6.13
2018-07-27T05:07:34.940Z,4.97
2018-07-27T05:10:07.563Z,7.13
2018-07-27T05:12:35.872Z,6.43
2018-07-27T05:15:04.656Z,7.47
2018-07-27T05:17:32.968Z,10.43
2018-07-27T05:20:01.316Z,7.90
2018-07-27T05:22:29.631Z,7.90
2018-07-27T05:24:57.966Z,6.70
2018-07-27T05:27:26.315Z,8.03
2018-07-27T05:29:54.659Z,19.10
2018-07-27T05:32:22.991Z,17.77
2018-07-27T05:34:51.288Z,19.83
2018-07-27T05:37:19.623Z,23.60
2018-07-27T05:39:47.928Z,8.47
2018-07-27T05:42:16.223Z,9.93
2018-07-27T05:44:44.562Z,11.50
2018-07-27T05:47:12.887Z,10.03
2018-07-27T05:49:41.171Z,17.63
2018-07-27T05:52:09.492Z,12.07
2018-07-27T05:54:37.880Z,5.03
2018-07-27T05:57:06.220Z,11.60
2018-07-27T05:59:34.533Z,10.27
2018-07-27T06:02:03.926Z,16.53
2018-07-27T06:04:32.304Z,8.23
2018-07-27T06:07:00.668Z,5.23
2018-07-27T06:09:28.967Z,20.23
2018-07-27T06:11:57.337Z,9.77
2018-07-27T06:14:25.716Z,16.53
2018-07-27T06:16:54.092Z,6.97
2018-07-27T06:19:22.500Z,7.00
2018-07-27T06:21:50.811Z,18.13
2018-07-27T06:24:19.266Z,8.23
2018-07-27T06:26:47.448Z,10.10
2018-07-27T06:29:15.808Z,5.37
2018-07-27T06:31:44.120Z,8.40
2018-07-27T06:34:12.511Z,22.53
2018-07-27T06:36:40.840Z,9.90
2018-07-27T06:39:10.315Z,8.27
2018-07-27T06:41:38.847Z,6.83
2018-07-27T06:44:07.175Z,11.13
2018-07-27T06:46:35.532Z,11.20
2018-07-27T06:49:03.883Z,7.00
2018-07-27T06:51:32.196Z,6.70
2018-07-27T06:54:00.577Z,12.87
2018-07-27T06:56:28.892Z,8.33
2018-07-27T06:58:57.196Z,9.20
2018-07-27T07:01:25.508Z,8.43
2018-07-27T07:03:53.819Z,17.03
2018-07-27T07:06:22.123Z,6.40
2018-07-27T07:08:50.448Z,9.80
2018-07-27T07:11:18.749Z,19.03
2018-07-27T07:13:47.135Z,8.23
2018-07-27T07:16:15.434Z,9.67
2018-07-27T07:18:43.766Z,7.53
2018-07-27T07:21:12.105Z,33.63
2018-07-27T07:23:40.455Z,8.73
2018-07-27T07:26:09.190Z,16.13
2018-07-27T07:28:37.187Z,16.07
2018-07-27T07:31:05.556Z,21.87
2018-07-27T07:33:33.879Z,8.40
2018-07-27T07:36:02.213Z,9.33
2018-07-27T07:38:30.748Z,6.13
2018-07-27T07:40:59.064Z,16.40
2018-07-27T07:43:27.368Z,16.87
2018-07-27T07:45:55.765Z,16.50
2018-07-27T07:48:24.089Z,14.47
2018-07-27T07:50:52.583Z,8.40
2018-07-27T07:53:20.942Z,9.73
2018-07-27T07:55:49.229Z,5.13
2018-07-27T07:58:17.549Z,15.53
2018-07-27T08:00:45.859Z,15.07
2018-07-27T08:03:14.204Z,8.87
2018-07-27T08:05:42.578Z,15.90
2018-07-27T08:08:10.868Z,13.20
2018-07-27T08:10:39.205Z,6.03
2018-07-27T08:13:07.580Z,11.10
2018-07-27T08:15:35.883Z,6.30
2018-07-27T08:18:04.341Z,10.13
2018-07-27T08:20:33.063Z,9.77
2018-07-27T08:23:01.488Z,7.27
2018-07-27T08:27:41.316Z,10.37
2018-07-27T08:30:14.100Z,9.07
2018-07-27T08:32:42.463Z,14.83
2018-07-27T08:35:10.793Z,12.50
2018-07-27T08:37:39.107Z,10.20
2018-07-27T08:40:08.069Z,6.07
2018-07-27T08:42:36.401Z,8.77
2018-07-27T08:45:05.284Z,14.47
2018-07-27T08:47:33.583Z,7.77
2018-07-27T08:50:01.913Z,5.53
2018-07-27T08:52:30.256Z,10.20
2018-07-27T08:54:58.545Z,11.13
2018-07-27T08:57:26.887Z,6.90
2018-07-27T08:59:55.224Z,9.07
2018-07-27T09:02:24.240Z,9.03
2018-07-27T09:04:52.551Z,30.83
2018-07-27T09:07:20.872Z,12.13
2018-07-27T09:09:49.180Z,43.00
2018-07-27T09:12:17.521Z,16.00
2018-07-27T09:14:45.823Z,15.30
2018-07-27T09:17:14.159Z,11.80
2018-07-27T09:19:42.432Z,34.63
2018-07-27T09:22:10.745Z,15.57
2018-07-27T09:24:39.160Z,11.30
2018-07-27T09:27:07.355Z,9.03
2018-07-27T09:29:35.672Z,6.93
2018-07-27T09:32:04.005Z,9.93
2018-07-27T09:34:32.392Z,8.20
2018-07-27T09:37:00.739Z,9.90
2018-07-27T09:39:29.075Z,16.60
2018-07-27T09:41:57.408Z,4.67
2018-07-27T09:44:27.053Z,8.40
2018-07-27T09:46:55.376Z,6.03
2018-07-27T09:49:23.704Z,7.80
2018-07-27T09:51:52.108Z,6.40
2018-07-27T09:54:20.428Z,10.00
2018-07-27T09:56:48.771Z,8.33
2018-07-27T09:59:17.100Z,8.80
2018-07-27T10:01:45.448Z,8.50
2018-07-27T10:04:13.790Z,7.43
2018-07-27T10:06:42.120Z,7.67
2018-07-27T10:09:10.425Z,5.17
2018-07-27T10:11:38.743Z,4.63
2018-07-27T10:14:07.056Z,9.37
2018-07-27T10:16:35.376Z,11.23
2018-07-27T10:19:03.728Z,16.57
2018-07-27T10:21:32.040Z,8.40
2018-07-27T10:24:00.422Z,4.33
2018-07-27T10:26:28.671Z,10.27
2018-07-27T10:28:56.980Z,8.97
2018-07-27T10:31:25.283Z,10.63
2018-07-27T10:33:53.623Z,6.40
2018-07-27T10:36:21.943Z,7.30
2018-07-27T10:38:50.296Z,6.43
2018-07-27T10:41:18.597Z,9.03
2018-07-27T10:43:46.887Z,6.70
2018-07-27T10:46:15.195Z,9.53
2018-07-27T10:48:43.536Z,10.23
2018-07-27T10:51:11.840Z,8.10
2018-07-27T10:53:40.140Z,7.87
2018-07-27T10:56:08.456Z,9.00
2018-07-27T10:58:36.764Z,6.10
2018-07-27T11:01:05.207Z,3.60
2018-07-27T11:03:33.512Z,22.87
2018-07-27T11:06:01.928Z,8.47
2018-07-27T11:08:30.244Z,10.83
2018-07-27T11:10:58.695Z,7.23
2018-07-27T11:13:27.284Z,3.10
2018-07-27T11:15:55.601Z,3.30
2018-07-27T11:18:23.907Z,7.07
2018-07-27T11:20:52.317Z,13.90
2018-07-27T11:23:20.627Z,4.20
2018-07-27T11:25:48.943Z,4.53
2018-07-27T11:28:17.524Z,10.87
2018-07-27T11:30:45.929Z,9.47
2018-07-27T11:33:14.252Z,9.73
2018-07-27T11:35:42.579Z,5.57
2018-07-27T11:38:10.887Z,5.43
2018-07-27T11:40:39.209Z,2.90
2018-07-27T11:43:07.557Z,10.07
2018-07-27T11:45:35.863Z,11.50
2018-07-27T11:48:04.207Z,13.10
2018-07-27T11:50:32.587Z,14.90
2018-07-27T11:53:00.921Z,16.43
2018-07-27T11:55:29.235Z,4.67
2018-07-27T11:57:57.583Z,5.87
2018-07-27T12:00:25.944Z,3.00
2018-07-27T12:02:54.249Z,2.50
2018-07-27T12:05:22.560Z,6.90
2018-07-27T12:07:50.902Z,2.93
2018-07-27T12:10:19.216Z,7.47
2018-07-27T12:12:47.560Z,2.13
2018-07-27T12:15:16.119Z,7.03
2018-07-27T12:17:44.332Z,3.47
2018-07-27T12:20:12.710Z,3.53
2018-07-27T12:22:41.027Z,5.10
2018-07-27T12:25:09.388Z,2.97
2018-07-27T12:27:37.748Z,9.10
2018-07-27T12:30:06.229Z,8.97
2018-07-27T12:32:34.558Z,7.00
2018-07-27T12:35:03.787Z,3.70
2018-07-27T12:37:32.092Z,2.20
2018-07-27T12:40:00.400Z,7.00
2018-07-27T12:42:28.696Z,8.37
2018-07-27T12:44:57.100Z,1.93
2018-07-27T12:47:25.400Z,2.10
2018-07-27T12:49:54.336Z,2.50
2018-07-27T12:52:23.383Z,3.27
2018-07-27T12:54:51.688Z,1.77
2018-07-27T12:57:20.000Z,4.13
2018-07-27T12:59:48.300Z,1.77
2018-07-27T13:02:16.616Z,2.67
2018-07-27T13:04:44.959Z,2.60
2018-07-27T13:07:13.261Z,1.33
2018-07-27T13:09:42.564Z,2.20
2018-07-27T13:12:11.669Z,1.90
2018-07-27T13:14:40.140Z,2.17
2018-07-27T13:17:08.479Z,2.63
2018-07-27T13:19:36.782Z,6.30
2018-07-27T13:22:05.162Z,2.50
2018-07-27T13:25:00.617Z,4.17
2018-07-27T13:27:01.772Z,4.27
2018-07-27T13:29:30.105Z,7.13
2018-07-27T13:31:59.333Z,2.03
2018-07-27T13:34:34.629Z,1.90
2018-07-27T13:37:03.238Z,1.70
2018-07-27T13:39:32.064Z,4.63
2018-07-27T13:42:01.496Z,2.00
2018-07-27T13:44:30.683Z,2.33
2018-07-27T13:46:59.069Z,10.83
2018-07-27T13:49:28.004Z,1.67
2018-07-27T13:51:56.579Z,3.23
2018-07-27T13:54:24.948Z,2.40
2018-07-27T13:56:53.281Z,1.87
2018-07-27T13:59:21.669Z,1.53
2018-07-27T14:01:50.280Z,1.90
2018-07-27T14:04:18.671Z,2.80
2018-07-27T14:06:48.928Z,5.70
2018-07-27T14:09:17.514Z,4.83
2018-07-27T14:11:45.891Z,2.57
2018-07-27T14:14:14.355Z,1.50
2018-07-27T14:16:42.953Z,1.53
2018-07-27T14:19:11.830Z,5.23
2018-07-27T14:21:40.395Z,1.73
2018-07-27T14:24:08.706Z,1.30
2018-07-27T14:26:37.003Z,6.90
2018-07-27T14:29:05.445Z,3.40
2018-07-27T14:31:33.740Z,3.40
2018-07-27T14:34:02.109Z,3.83
2018-07-27T14:36:31.187Z,5.00
2018-07-27T14:38:59.529Z,1.50
2018-07-27T14:41:27.924Z,1.43
2018-07-27T14:43:56.331Z,3.00
2018-07-27T14:46:24.652Z,1.33
2018-07-27T14:48:53.000Z,2.97
2018-07-27T14:51:21.337Z,4.90
2018-07-27T14:53:49.678Z,8.53
2018-07-27T14:56:18.140Z,4.10
2018-07-27T14:58:46.559Z,1.57
2018-07-27T15:01:14.864Z,2.70
2018-07-27T15:03:43.182Z,2.50
2018-07-27T15:06:11.543Z,1.73
2018-07-27T15:08:39.881Z,1.37
2018-07-27T15:11:08.322Z,1.00
2018-07-27T15:13:36.641Z,4.83
2018-07-27T15:16:05.102Z,1.27
2018-07-27T15:18:33.497Z,2.77
2018-07-27T15:21:10.712Z,2.57
2018-07-27T15:23:42.673Z,6.53
2018-07-27T15:26:18.350Z,2.23
2018-07-27T15:28:52.633Z,2.90
2018-07-27T15:31:27.588Z,4.57
2018-07-27T15:33:59.180Z,15.53
2018-07-27T15:39:12.595Z,8.23
2018-07-27T15:41:44.709Z,5.03
2018-07-27T15:44:23.793Z,3.67
2018-07-27T15:46:56.069Z,7.00
2018-07-27T15:49:27.965Z,4.50
2018-07-27T15:52:00.824Z,4.57
2018-07-27T15:54:36.143Z,4.40
2018-07-27T15:57:07.965Z,5.67
2018-07-27T15:59:39.549Z,4.10
2018-07-27T16:02:11.996Z,9.20
2018-07-27T16:04:45.345Z,4.63
2018-07-27T16:07:18.749Z,5.03
2018-07-27T16:09:50.396Z,1.47
2018-07-27T16:12:21.030Z,5.33
2018-07-27T16:14:53.637Z,4.67
2018-07-27T16:17:27.475Z,3.10
2018-07-27T16:20:00.365Z,1.70
2018-07-27T16:22:28.795Z,3.87
2018-07-27T16:25:03.344Z,1.60
2018-07-27T16:27:35.053Z,1.20
2018-07-27T16:30:08.789Z,1.93
2018-07-27T16:32:40.496Z,6.53
2018-07-27T16:35:15.860Z,6.23
2018-07-27T16:37:53.341Z,3.90
2018-07-27T16:40:24.666Z,3.23
2018-07-27T16:43:02.081Z,2.63
2018-07-27T16:45:37.650Z,1.90
2018-07-27T16:48:11.385Z,2.17
2018-07-27T16:50:46.919Z,2.30
2018-07-27T16:53:21.684Z,1.80
2018-07-27T16:55:55.325Z,1.73
2018-07-27T16:58:26.794Z,1.40
2018-07-27T17:01:00.539Z,1.87
2018-07-27T17:03:34.898Z,3.07
2018-07-27T17:06:10.106Z,1.57
2018-07-27T17:08:43.657Z,1.60
2018-07-27T17:11:16.883Z,3.30
2018-07-27T17:13:48.470Z,1.83
2018-07-27T17:16:20.266Z,3.57
2018-07-27T17:18:52.861Z,5.03
2018-07-27T17:21:26.727Z,8.60
2018-07-27T17:23:58.541Z,2.73
2018-07-27T17:26:29.007Z,2.50
2018-07-27T17:29:00.185Z,2.20
2018-07-27T17:31:31.839Z,5.93
2018-07-27T17:34:02.353Z,2.03
2018-07-27T17:36:35.808Z,5.70
2018-07-27T17:39:12.562Z,1.97
2018-07-27T17:41:45.098Z,3.20
2018-07-27T17:44:20.048Z,4.57
2018-07-27T17:46:57.453Z,1.90
2018-07-27T17:49:31.705Z,2.70
2018-07-27T17:52:03.086Z,4.20
2018-07-27T17:54:34.465Z,8.20
2018-07-27T17:57:06.727Z,2.20
2018-07-27T17:59:43.882Z,2.23
2018-07-27T18:02:14.533Z,6.30
2018-07-27T18:04:45.693Z,4.17
2018-07-27T18:07:17.206Z,2.27
2018-07-27T18:09:50.662Z,5.53
2018-07-27T18:12:30.685Z,17.87
2018-07-27T18:15:02.353Z,2.00
2018-07-27T18:17:36.297Z,2.53
2018-07-27T18:20:13.235Z,4.30
2018-07-27T18:22:45.461Z,10.50
2018-07-27T18:25:18.103Z,2.93
2018-07-27T18:27:52.113Z,6.00
2018-07-27T18:30:25.856Z,2.70
2018-07-27T18:33:00.945Z,2.20
2018-07-27T18:35:31.788Z,3.80
2018-07-27T18:38:05.004Z,4.40
2018-07-27T18:40:40.329Z,2.20
2018-07-27T18:43:13.289Z,5.20
2018-07-27T18:45:46.316Z,5.93
2018-07-27T18:48:17.834Z,3.33
2018-07-27T18:50:50.324Z,6.03
2018-07-27T18:53:22.665Z,8.40
2018-07-27T18:55:53.441Z,3.07
2018-07-27T18:58:24.134Z,3.73
2018-07-27T19:00:59.302Z,5.40
2018-07-27T19:03:31.105Z,5.80
2018-07-27T19:06:06.133Z,9.20
2018-07-27T19:08:36.489Z,10.73
2018-07-27T19:11:13.845Z,11.03
2018-07-27T19:13:46.867Z,7.13
2018-07-27T19:16:23.683Z,17.80
2018-07-27T19:18:57.591Z,13.40
2018-07-27T19:21:29.781Z,4.13
2018-07-27T19:24:01.301Z,7.70
2018-07-27T19:26:32.981Z,4.13
2018-07-27T19:29:05.422Z,11.90
2018-07-27T19:31:37.557Z,8.07
2018-07-27T19:34:09.231Z,13.73
2018-07-27T19:36:42.056Z,39.97
2018-07-27T19:39:17.432Z,55.43
2018-07-27T19:41:51.568Z,76.97
2018-07-27T19:44:22.863Z,50.93
2018-07-27T19:46:54.106Z,68.97
2018-07-27T19:49:30.269Z,92.73
2018-07-27T19:52:02.781Z,116.03
2018-07-27T19:54:36.686Z,94.97
2018-07-27T19:57:08.633Z,106.73
2018-07-27T19:59:52.126Z,94.57
2018-07-27T20:02:26.102Z,101.03
2018-07-27T20:04:58.048Z,140.17
2018-07-27T20:07:29.528Z,133.47
2018-07-27T20:10:02.222Z,120.80
2018-07-27T20:12:35.338Z,170.17
2018-07-27T20:15:09.212Z,87.23
2018-07-27T20:17:45.768Z,74.70
2018-07-27T20:20:18.378Z,127.47
2018-07-27T20:22:51.525Z,98.33
2018-07-27T20:25:24.209Z,94.70
2018-07-27T20:27:52.596Z,67.40
2018-07-27T20:33:01.411Z,60.10
2018-07-27T20:35:39.601Z,76.73
2018-07-27T20:38:12.819Z,96.23
2018-07-27T20:40:47.407Z,61.50
2018-07-27T20:43:21.191Z,97.30
2018-07-27T20:45:57.013Z,105.07
2018-07-27T20:48:31.869Z,90.00
2018-07-27T20:51:07.100Z,103.90
2018-07-27T20:53:42.662Z,96.57
2018-07-27T20:56:19.305Z,62.20
2018-07-27T20:58:50.947Z,80.30
2018-07-27T21:01:27.853Z,75.27
2018-07-27T21:04:06.182Z,79.73
2018-07-27T21:06:40.939Z,89.67
2018-07-27T21:09:14.626Z,49.63
2018-07-27T21:11:48.609Z,55.10
2018-07-27T21:14:20.954Z,69.87
2018-07-27T21:16:57.919Z,56.90
2018-07-27T21:19:31.099Z,54.50
2018-07-27T21:22:07.029Z,26.63
2018-07-27T21:24:35.484Z,36.70
2018-07-27T21:27:03.843Z,47.97
2018-07-27T21:29:32.136Z,28.97
2018-07-27T21:32:00.503Z,29.37
2018-07-27T21:34:28.799Z,16.87
2018-07-27T21:36:57.136Z,34.57
2018-07-27T21:39:25.450Z,34.43
2018-07-27T21:41:53.742Z,18.40
2018-07-27T21:44:22.300Z,11.87
2018-07-27T21:46:51.422Z,19.23
2018-07-27T21:49:19.767Z,20.47
2018-07-27T21:51:48.093Z,12.70
2018-07-27T21:54:16.507Z,26.53
2018-07-27T21:56:45.215Z,20.53
2018-07-27T21:59:13.681Z,25.53
2018-07-27T22:01:41.996Z,11.70
2018-07-27T22:04:10.375Z,9.60
2018-07-27T22:06:38.715Z,6.20
2018-07-27T22:09:08.922Z,6.03
2018-07-27T22:11:37.368Z,8.03
2018-07-27T22:14:05.773Z,11.47
2018-07-27T22:16:34.239Z,10.50
2018-07-27T22:19:02.561Z,8.30
2018-07-27T22:21:30.904Z,8.20
2018-07-27T22:23:59.235Z,10.53
2018-07-27T22:26:27.631Z,9.67
2018-07-27T22:28:55.943Z,12.13
2018-07-27T22:31:24.271Z,10.03
2018-07-27T22:33:53.339Z,11.83
2018-07-27T22:36:21.628Z,9.03
2018-07-27T22:38:50.056Z,13.63
2018-07-27T22:41:18.415Z,15.77
2018-07-27T22:43:46.766Z,8.07
2018-07-27T22:46:15.092Z,7.97
2018-07-27T22:48:43.376Z,8.30
2018-07-27T22:51:11.719Z,11.53
2018-07-27T22:53:40.129Z,6.70
2018-07-27T22:56:08.416Z,12.73
2018-07-27T22:58:36.756Z,8.97
2018-07-27T23:01:05.348Z,6.93
2018-07-27T23:03:33.704Z,11.03
2018-07-27T23:06:02.034Z,7.13
2018-07-27T23:08:30.400Z,14.60
2018-07-27T23:10:59.320Z,10.73
2018-07-27T23:13:28.451Z,29.90
2018-07-27T23:15:57.824Z,10.80
2018-07-27T23:18:26.458Z,7.00
2018-07-27T23:20:55.897Z,7.27
2018-07-27T23:23:24.223Z,8.20
2018-07-27T23:25:52.628Z,8.40
2018-07-27T23:28:20.943Z,7.47
2018-07-27T23:30:49.956Z,7.13
2018-07-27T23:33:18.295Z,6.37
2018-07-27T23:35:46.600Z,9.40
2018-07-27T23:38:14.911Z,5.57
2018-07-27T23:40:43.312Z,7.30
2018-07-27T23:43:11.705Z,9.30
2018-07-27T23:45:40.048Z,6.00
2018-07-27T23:48:09.403Z,11.60
2018-07-27T23:50:38.727Z,5.50
2018-07-27T23:53:07.199Z,14.23
2018-07-27T23:55:35.515Z,13.53
2018-07-27T23:58:03.862Z,7.03
